sensor_id;sensor_type;location;lat;lon;timestamp;P1;durP1;ratioP1;P2;durP2;ratioP2
10063;SDS011;5071;52.360;13.134;2023-03-25T00:03:00;1.80;;;1.20;;
10063;SDS011;5071;52.360;13.134;2023-03-25T00:08:02;0.97;;;0.90;;
10063;SDS011;5071;52.360;13.134;2023-03-25T00:13:05;2.80;;;1.93;;
10063;SDS011;5071;52.360;13.134;2023-03-25T00:18:09;4.00;;;1.23;;
10063;SDS011;5071;52.360;13.134;2023-03-25T00:23:10;1.47;;;1.00;;
10063;SDS011;5071;52.360;13.134;2023-03-25T00:28:13;2.43;;;1.07;;
10063;SDS011;5071;52.360;13.134;2023-03-25T00:33:17;3.77;;;1.10;;
10063;SDS011;5071;52.360;13.134;2023-03-25T00:38:19;1.83;;;1.20;;
10063;SDS011;5071;52.360;13.134;2023-03-25T00:43:21;2.90;;;1.00;;
10063;SDS011;5071;52.360;13.134;2023-03-25T00:48:25;1.80;;;1.20;;
10063;SDS011;5071;52.360;13.134;2023-03-25T00:53:27;1.60;;;1.17;;
10063;SDS011;5071;52.360;13.134;2023-03-25T00:58:29;1.00;;;0.80;;
10063;SDS011;5071;52.360;13.134;2023-03-25T01:03:32;3.27;;;1.30;;
10063;SDS011;5071;52.360;13.134;2023-03-25T01:08:34;2.33;;;1.17;;
10063;SDS011;5071;52.360;13.134;2023-03-25T01:13:36;1.73;;;1.00;;
10063;SDS011;5071;52.360;13.134;2023-03-25T01:18:40;2.60;;;1.00;;
10063;SDS011;5071;52.360;13.134;2023-03-25T01:23:42;2.83;;;1.27;;
10063;SDS011;5071;52.360;13.134;2023-03-25T01:28:45;1.33;;;1.20;;
10063;SDS011;5071;52.360;13.134;2023-03-25T01:33:51;1.17;;;0.87;;
10063;SDS011;5071;52.360;13.134;2023-03-25T01:38:54;1.13;;;1.03;;
10063;SDS011;5071;52.360;13.134;2023-03-25T01:44:00;2.07;;;1.47;;
10063;SDS011;5071;52.360;13.134;2023-03-25T01:49:09;3.20;;;1.10;;
10063;SDS011;5071;52.360;13.134;2023-03-25T01:54:15;2.80;;;0.97;;
10063;SDS011;5071;52.360;13.134;2023-03-25T01:59:17;1.20;;;0.73;;
10063;SDS011;5071;52.360;13.134;2023-03-25T02:04:26;1.20;;;0.70;;
10063;SDS011;5071;52.360;13.134;2023-03-25T02:09:34;3.67;;;0.83;;
10063;SDS011;5071;52.360;13.134;2023-03-25T02:14:37;3.53;;;0.90;;
10063;SDS011;5071;52.360;13.134;2023-03-25T02:25:15;2.10;;;0.90;;
10063;SDS011;5071;52.360;13.134;2023-03-25T02:36:29;2.57;;;1.10;;
10063;SDS011;5071;52.360;13.134;2023-03-25T02:41:55;3.33;;;1.10;;
10063;SDS011;5071;52.360;13.134;2023-03-25T02:47:06;1.63;;;1.03;;
10063;SDS011;5071;52.360;13.134;2023-03-25T02:52:13;2.67;;;0.97;;
10063;SDS011;5071;52.360;13.134;2023-03-25T02:57:19;1.77;;;1.07;;
10063;SDS011;5071;52.360;13.134;2023-03-25T03:02:24;1.43;;;0.93;;
10063;SDS011;5071;52.360;13.134;2023-03-25T03:07:31;2.73;;;0.97;;
10063;SDS011;5071;52.360;13.134;2023-03-25T03:12:47;1.83;;;1.20;;
10063;SDS011;5071;52.360;13.134;2023-03-25T03:18:04;3.70;;;1.33;;
10063;SDS011;5071;52.360;13.134;2023-03-25T03:23:13;1.93;;;1.23;;
10063;SDS011;5071;52.360;13.134;2023-03-25T03:28:29;2.03;;;1.03;;
10063;SDS011;5071;52.360;13.134;2023-03-25T03:33:41;2.53;;;1.10;;
10063;SDS011;5071;52.360;13.134;2023-03-25T03:38:50;2.13;;;0.90;;
10063;SDS011;5071;52.360;13.134;2023-03-25T03:43:58;1.50;;;0.80;;
10063;SDS011;5071;52.360;13.134;2023-03-25T03:49:03;2.00;;;1.00;;
10063;SDS011;5071;52.360;13.134;2023-03-25T03:54:10;4.27;;;0.83;;
10063;SDS011;5071;52.360;13.134;2023-03-25T03:59:22;1.33;;;0.63;;
10063;SDS011;5071;52.360;13.134;2023-03-25T04:04:28;3.47;;;0.83;;
10063;SDS011;5071;52.360;13.134;2023-03-25T04:09:32;5.03;;;0.77;;
10063;SDS011;5071;52.360;13.134;2023-03-25T04:14:44;1.17;;;0.90;;
10063;SDS011;5071;52.360;13.134;2023-03-25T04:19:46;5.10;;;1.00;;
10063;SDS011;5071;52.360;13.134;2023-03-25T04:24:49;3.50;;;1.13;;
10063;SDS011;5071;52.360;13.134;2023-03-25T04:29:55;2.40;;;0.80;;
10063;SDS011;5071;52.360;13.134;2023-03-25T04:34:57;1.93;;;0.80;;
10063;SDS011;5071;52.360;13.134;2023-03-25T04:39:59;1.47;;;0.97;;
10063;SDS011;5071;52.360;13.134;2023-03-25T04:45:04;0.70;;;0.60;;
10063;SDS011;5071;52.360;13.134;2023-03-25T04:50:07;0.90;;;0.77;;
10063;SDS011;5071;52.360;13.134;2023-03-25T04:55:16;1.73;;;0.90;;
10063;SDS011;5071;52.360;13.134;2023-03-25T05:00:21;0.43;;;0.43;;
10063;SDS011;5071;52.360;13.134;2023-03-25T05:05:24;5.07;;;1.00;;
10063;SDS011;5071;52.360;13.134;2023-03-25T05:10:26;1.47;;;0.73;;
10063;SDS011;5071;52.360;13.134;2023-03-25T05:15:30;3.07;;;0.60;;
10063;SDS011;5071;52.360;13.134;2023-03-25T05:20:34;1.37;;;0.40;;
10063;SDS011;5071;52.360;13.134;2023-03-25T05:25:37;1.90;;;0.87;;
10063;SDS011;5071;52.360;13.134;2023-03-25T05:30:42;2.50;;;0.47;;
10063;SDS011;5071;52.360;13.134;2023-03-25T05:35:45;3.53;;;0.60;;
10063;SDS011;5071;52.360;13.134;2023-03-25T05:40:48;2.83;;;0.70;;
10063;SDS011;5071;52.360;13.134;2023-03-25T05:45:51;6.03;;;0.50;;
10063;SDS011;5071;52.360;13.134;2023-03-25T05:50:54;4.63;;;0.70;;
10063;SDS011;5071;52.360;13.134;2023-03-25T05:55:56;1.03;;;0.50;;
10063;SDS011;5071;52.360;13.134;2023-03-25T06:00:59;0.67;;;0.50;;
10063;SDS011;5071;52.360;13.134;2023-03-25T06:06:02;0.40;;;0.30;;
10063;SDS011;5071;52.360;13.134;2023-03-25T06:11:04;1.33;;;0.50;;
10063;SDS011;5071;52.360;13.134;2023-03-25T06:16:08;0.30;;;0.30;;
10063;SDS011;5071;52.360;13.134;2023-03-25T06:21:10;1.90;;;0.60;;
10063;SDS011;5071;52.360;13.134;2023-03-25T06:26:12;0.40;;;0.40;;
10063;SDS011;5071;52.360;13.134;2023-03-25T06:31:17;1.93;;;0.70;;
10063;SDS011;5071;52.360;13.134;2023-03-25T06:36:20;1.10;;;0.60;;
10063;SDS011;5071;52.360;13.134;2023-03-25T06:41:23;1.80;;;0.70;;
10063;SDS011;5071;52.360;13.134;2023-03-25T06:46:29;0.50;;;0.30;;
10063;SDS011;5071;52.360;13.134;2023-03-25T06:51:31;2.17;;;0.63;;
10063;SDS011;5071;52.360;13.134;2023-03-25T06:56:34;1.23;;;0.50;;
10063;SDS011;5071;52.360;13.134;2023-03-25T07:01:38;0.57;;;0.27;;
10063;SDS011;5071;52.360;13.134;2023-03-25T07:06:40;0.93;;;0.67;;
10063;SDS011;5071;52.360;13.134;2023-03-25T07:11:42;3.30;;;0.80;;
10063;SDS011;5071;52.360;13.134;2023-03-25T07:16:47;3.30;;;0.60;;
10063;SDS011;5071;52.360;13.134;2023-03-25T07:21:51;1.17;;;0.47;;
10063;SDS011;5071;52.360;13.134;2023-03-25T07:26:53;2.53;;;0.60;;
10063;SDS011;5071;52.360;13.134;2023-03-25T07:31:58;1.73;;;0.37;;
10063;SDS011;5071;52.360;13.134;2023-03-25T07:37:00;2.37;;;0.50;;
10063;SDS011;5071;52.360;13.134;2023-03-25T07:42:04;2.50;;;0.37;;
10063;SDS011;5071;52.360;13.134;2023-03-25T07:47:08;1.03;;;0.50;;
10063;SDS011;5071;52.360;13.134;2023-03-25T07:52:10;1.30;;;0.47;;
10063;SDS011;5071;52.360;13.134;2023-03-25T07:57:16;1.50;;;0.40;;
10063;SDS011;5071;52.360;13.134;2023-03-25T08:02:20;3.83;;;0.70;;
10063;SDS011;5071;52.360;13.134;2023-03-25T08:07:22;2.00;;;0.40;;
10063;SDS011;5071;52.360;13.134;2023-03-25T08:12:24;2.53;;;0.40;;
10063;SDS011;5071;52.360;13.134;2023-03-25T08:17:28;1.60;;;0.30;;
10063;SDS011;5071;52.360;13.134;2023-03-25T08:22:31;0.30;;;0.30;;
10063;SDS011;5071;52.360;13.134;2023-03-25T08:27:33;3.20;;;0.57;;
10063;SDS011;5071;52.360;13.134;2023-03-25T08:32:38;2.67;;;0.40;;
10063;SDS011;5071;52.360;13.134;2023-03-25T08:37:41;1.20;;;0.30;;
10063;SDS011;5071;52.360;13.134;2023-03-25T08:42:43;0.30;;;0.23;;
10063;SDS011;5071;52.360;13.134;2023-03-25T08:47:46;1.03;;;0.30;;
10063;SDS011;5071;52.360;13.134;2023-03-25T08:52:48;0.70;;;0.30;;
10063;SDS011;5071;52.360;13.134;2023-03-25T08:57:50;3.10;;;0.53;;
10063;SDS011;5071;52.360;13.134;2023-03-25T09:02:54;0.47;;;0.40;;
10063;SDS011;5071;52.360;13.134;2023-03-25T09:07:56;2.03;;;0.50;;
10063;SDS011;5071;52.360;13.134;2023-03-25T09:12:59;1.57;;;0.40;;
10063;SDS011;5071;52.360;13.134;2023-03-25T09:18:03;0.57;;;0.43;;
10063;SDS011;5071;52.360;13.134;2023-03-25T09:23:05;3.10;;;0.60;;
10063;SDS011;5071;52.360;13.134;2023-03-25T09:28:08;1.40;;;0.40;;
10063;SDS011;5071;52.360;13.134;2023-03-25T09:33:11;1.33;;;0.47;;
10063;SDS011;5071;52.360;13.134;2023-03-25T09:38:13;1.00;;;0.60;;
10063;SDS011;5071;52.360;13.134;2023-03-25T09:43:22;0.87;;;0.50;;
10063;SDS011;5071;52.360;13.134;2023-03-25T09:48:37;0.20;;;0.20;;
10063;SDS011;5071;52.360;13.134;2023-03-25T09:53:42;0.20;;;0.20;;
10063;SDS011;5071;52.360;13.134;2023-03-25T09:58:49;0.33;;;0.30;;
10063;SDS011;5071;52.360;13.134;2023-03-25T10:03:56;0.77;;;0.40;;
10063;SDS011;5071;52.360;13.134;2023-03-25T10:14:39;0.30;;;0.30;;
10063;SDS011;5071;52.360;13.134;2023-03-25T10:19:59;1.20;;;0.40;;
10063;SDS011;5071;52.360;13.134;2023-03-25T10:25:08;0.70;;;0.40;;
10063;SDS011;5071;52.360;13.134;2023-03-25T10:30:20;0.50;;;0.50;;
10063;SDS011;5071;52.360;13.134;2023-03-25T10:35:27;0.83;;;0.50;;
10063;SDS011;5071;52.360;13.134;2023-03-25T10:40:30;0.60;;;0.50;;
10063;SDS011;5071;52.360;13.134;2023-03-25T10:45:35;0.50;;;0.50;;
10063;SDS011;5071;52.360;13.134;2023-03-25T10:50:40;1.10;;;0.50;;
10063;SDS011;5071;52.360;13.134;2023-03-25T10:55:43;1.27;;;0.33;;
10063;SDS011;5071;52.360;13.134;2023-03-25T11:00:47;0.67;;;0.40;;
10063;SDS011;5071;52.360;13.134;2023-03-25T11:05:50;4.07;;;0.50;;
10063;SDS011;5071;52.360;13.134;2023-03-25T11:10:53;1.67;;;1.17;;
10063;SDS011;5071;52.360;13.134;2023-03-25T11:15:56;1.03;;;0.50;;
10063;SDS011;5071;52.360;13.134;2023-03-25T11:21:02;0.93;;;0.53;;
10063;SDS011;5071;52.360;13.134;2023-03-25T11:26:11;0.40;;;0.40;;
10063;SDS011;5071;52.360;13.134;2023-03-25T11:31:18;1.30;;;0.40;;
10063;SDS011;5071;52.360;13.134;2023-03-25T11:36:26;0.50;;;0.33;;
10063;SDS011;5071;52.360;13.134;2023-03-25T11:41:30;0.47;;;0.40;;
10063;SDS011;5071;52.360;13.134;2023-03-25T11:46:35;0.30;;;0.27;;
10063;SDS011;5071;52.360;13.134;2023-03-25T11:51:45;0.60;;;0.40;;
10063;SDS011;5071;52.360;13.134;2023-03-25T11:56:47;0.33;;;0.33;;
10063;SDS011;5071;52.360;13.134;2023-03-25T12:01:51;0.93;;;0.30;;
10063;SDS011;5071;52.360;13.134;2023-03-25T12:07:06;0.83;;;0.40;;
10063;SDS011;5071;52.360;13.134;2023-03-25T12:17:42;3.70;;;1.00;;
10063;SDS011;5071;52.360;13.134;2023-03-25T12:22:59;1.17;;;0.50;;
10063;SDS011;5071;52.360;13.134;2023-03-25T12:28:06;1.23;;;0.40;;
10063;SDS011;5071;52.360;13.134;2023-03-25T12:33:28;0.63;;;0.30;;
10063;SDS011;5071;52.360;13.134;2023-03-25T12:38:47;0.40;;;0.30;;
10063;SDS011;5071;52.360;13.134;2023-03-25T12:44:01;0.37;;;0.20;;
10063;SDS011;5071;52.360;13.134;2023-03-25T12:49:09;0.73;;;0.40;;
10063;SDS011;5071;52.360;13.134;2023-03-25T12:54:29;0.50;;;0.30;;
10063;SDS011;5071;52.360;13.134;2023-03-25T12:59:45;0.20;;;0.20;;
10063;SDS011;5071;52.360;13.134;2023-03-25T13:05:04;0.93;;;0.40;;
10063;SDS011;5071;52.360;13.134;2023-03-25T13:10:19;0.33;;;0.33;;
10063;SDS011;5071;52.360;13.134;2023-03-25T13:15:23;0.30;;;0.30;;
10063;SDS011;5071;52.360;13.134;2023-03-25T13:20:30;1.20;;;0.40;;
10063;SDS011;5071;52.360;13.134;2023-03-25T13:25:40;1.70;;;0.70;;
10063;SDS011;5071;52.360;13.134;2023-03-25T13:30:45;0.73;;;0.40;;
10063;SDS011;5071;52.360;13.134;2023-03-25T13:35:51;0.30;;;0.30;;
10063;SDS011;5071;52.360;13.134;2023-03-25T13:41:06;2.97;;;0.47;;
10063;SDS011;5071;52.360;13.134;2023-03-25T13:46:12;0.87;;;0.30;;
10063;SDS011;5071;52.360;13.134;2023-03-25T13:51:19;0.23;;;0.20;;
10063;SDS011;5071;52.360;13.134;2023-03-25T13:56:46;0.60;;;0.20;;
10063;SDS011;5071;52.360;13.134;2023-03-25T14:02:06;0.30;;;0.30;;
10063;SDS011;5071;52.360;13.134;2023-03-25T14:07:33;2.70;;;0.50;;
10063;SDS011;5071;52.360;13.134;2023-03-25T14:12:49;0.40;;;0.40;;
10063;SDS011;5071;52.360;13.134;2023-03-25T14:17:55;1.27;;;0.50;;
10063;SDS011;5071;52.360;13.134;2023-03-25T14:23:00;1.17;;;0.70;;
10063;SDS011;5071;52.360;13.134;2023-03-25T14:28:06;4.73;;;0.80;;
10063;SDS011;5071;52.360;13.134;2023-03-25T14:33:12;0.77;;;0.50;;
10063;SDS011;5071;52.360;13.134;2023-03-25T14:38:18;2.27;;;0.60;;
10063;SDS011;5071;52.360;13.134;2023-03-25T14:43:23;0.30;;;0.30;;
10063;SDS011;5071;52.360;13.134;2023-03-25T14:48:28;0.87;;;0.40;;
10063;SDS011;5071;52.360;13.134;2023-03-25T14:53:32;0.97;;;0.40;;
10063;SDS011;5071;52.360;13.134;2023-03-25T14:58:37;0.23;;;0.20;;
10063;SDS011;5071;52.360;13.134;2023-03-25T15:03:40;1.27;;;0.30;;
10063;SDS011;5071;52.360;13.134;2023-03-25T15:08:49;0.50;;;0.43;;
10063;SDS011;5071;52.360;13.134;2023-03-25T15:13:58;0.30;;;0.30;;
10063;SDS011;5071;52.360;13.134;2023-03-25T15:19:03;0.60;;;0.40;;
10063;SDS011;5071;52.360;13.134;2023-03-25T15:24:11;2.10;;;0.60;;
10063;SDS011;5071;52.360;13.134;2023-03-25T15:29:27;1.13;;;0.60;;
10063;SDS011;5071;52.360;13.134;2023-03-25T15:35:00;1.00;;;0.57;;
10063;SDS011;5071;52.360;13.134;2023-03-25T15:40:19;0.60;;;0.47;;
10063;SDS011;5071;52.360;13.134;2023-03-25T15:45:37;1.33;;;0.80;;
10063;SDS011;5071;52.360;13.134;2023-03-25T15:51:05;2.37;;;0.70;;
10063;SDS011;5071;52.360;13.134;2023-03-25T15:56:19;1.63;;;0.60;;
10063;SDS011;5071;52.360;13.134;2023-03-25T16:01:27;0.50;;;0.50;;
10063;SDS011;5071;52.360;13.134;2023-03-25T16:06:32;1.80;;;0.63;;
10063;SDS011;5071;52.360;13.134;2023-03-25T16:11:41;0.63;;;0.60;;
10063;SDS011;5071;52.360;13.134;2023-03-25T16:16:45;1.80;;;0.60;;
10063;SDS011;5071;52.360;13.134;2023-03-25T16:21:52;1.53;;;1.00;;
10063;SDS011;5071;52.360;13.134;2023-03-25T16:26:54;4.97;;;1.63;;
10063;SDS011;5071;52.360;13.134;2023-03-25T16:31:59;1.03;;;0.93;;
10063;SDS011;5071;52.360;13.134;2023-03-25T16:37:02;1.10;;;0.73;;
10063;SDS011;5071;52.360;13.134;2023-03-25T16:42:05;1.50;;;0.80;;
10063;SDS011;5071;52.360;13.134;2023-03-25T16:47:18;0.80;;;0.77;;
10063;SDS011;5071;52.360;13.134;2023-03-25T16:52:22;2.87;;;0.93;;
10063;SDS011;5071;52.360;13.134;2023-03-25T16:57:28;2.43;;;0.90;;
10063;SDS011;5071;52.360;13.134;2023-03-25T17:02:38;1.53;;;1.00;;
10063;SDS011;5071;52.360;13.134;2023-03-25T17:07:41;2.00;;;0.73;;
10063;SDS011;5071;52.360;13.134;2023-03-25T17:12:43;2.10;;;1.20;;
10063;SDS011;5071;52.360;13.134;2023-03-25T17:17:51;1.20;;;1.07;;
10063;SDS011;5071;52.360;13.134;2023-03-25T17:22:57;2.53;;;0.40;;
10063;SDS011;5071;52.360;13.134;2023-03-25T17:28:18;3.23;;;1.13;;
10063;SDS011;5071;52.360;13.134;2023-03-25T17:33:30;1.00;;;0.70;;
10063;SDS011;5071;52.360;13.134;2023-03-25T17:38:34;2.00;;;0.77;;
10063;SDS011;5071;52.360;13.134;2023-03-25T17:43:42;1.60;;;0.97;;
10063;SDS011;5071;52.360;13.134;2023-03-25T17:48:47;1.03;;;0.60;;
10063;SDS011;5071;52.360;13.134;2023-03-25T17:53:50;4.43;;;0.70;;
10063;SDS011;5071;52.360;13.134;2023-03-25T17:58:52;3.67;;;2.23;;
10063;SDS011;5071;52.360;13.134;2023-03-25T18:03:59;2.77;;;1.53;;
10063;SDS011;5071;52.360;13.134;2023-03-25T18:09:02;1.47;;;0.73;;
10063;SDS011;5071;52.360;13.134;2023-03-25T18:14:04;2.33;;;1.30;;
10063;SDS011;5071;52.360;13.134;2023-03-25T18:19:09;1.03;;;0.73;;
10063;SDS011;5071;52.360;13.134;2023-03-25T18:24:14;1.23;;;0.90;;
10063;SDS011;5071;52.360;13.134;2023-03-25T18:29:16;1.00;;;0.90;;
10063;SDS011;5071;52.360;13.134;2023-03-25T18:34:21;2.67;;;0.93;;
10063;SDS011;5071;52.360;13.134;2023-03-25T18:39:24;1.10;;;1.00;;
10063;SDS011;5071;52.360;13.134;2023-03-25T18:44:27;1.43;;;0.90;;
10063;SDS011;5071;52.360;13.134;2023-03-25T18:49:31;0.50;;;0.50;;
10063;SDS011;5071;52.360;13.134;2023-03-25T18:54:33;0.80;;;0.80;;
10063;SDS011;5071;52.360;13.134;2023-03-25T18:59:35;5.70;;;0.70;;
10063;SDS011;5071;52.360;13.134;2023-03-25T19:04:38;0.37;;;0.37;;
10063;SDS011;5071;52.360;13.134;2023-03-25T19:09:59;3.63;;;1.20;;
10063;SDS011;5071;52.360;13.134;2023-03-25T19:15:02;1.37;;;0.70;;
10063;SDS011;5071;52.360;13.134;2023-03-25T19:20:06;0.73;;;0.60;;
10063;SDS011;5071;52.360;13.134;2023-03-25T19:25:09;0.90;;;0.60;;
10063;SDS011;5071;52.360;13.134;2023-03-25T19:30:13;2.50;;;0.60;;
10063;SDS011;5071;52.360;13.134;2023-03-25T19:35:18;0.60;;;0.60;;
10063;SDS011;5071;52.360;13.134;2023-03-25T19:40:21;1.80;;;0.70;;
10063;SDS011;5071;52.360;13.134;2023-03-25T19:45:24;0.40;;;0.40;;
10063;SDS011;5071;52.360;13.134;2023-03-25T19:50:29;2.93;;;1.17;;
10063;SDS011;5071;52.360;13.134;2023-03-25T19:55:33;5.93;;;2.90;;
10063;SDS011;5071;52.360;13.134;2023-03-25T20:00:35;1.53;;;0.70;;
10063;SDS011;5071;52.360;13.134;2023-03-25T20:05:39;2.17;;;0.70;;
10063;SDS011;5071;52.360;13.134;2023-03-25T20:10:41;2.87;;;0.90;;
10063;SDS011;5071;52.360;13.134;2023-03-25T20:15:43;1.10;;;0.60;;
10063;SDS011;5071;52.360;13.134;2023-03-25T20:20:47;0.30;;;0.30;;
10063;SDS011;5071;52.360;13.134;2023-03-25T20:25:49;0.47;;;0.43;;
10063;SDS011;5071;52.360;13.134;2023-03-25T20:30:52;1.13;;;0.80;;
10063;SDS011;5071;52.360;13.134;2023-03-25T20:35:55;0.40;;;0.40;;
10063;SDS011;5071;52.360;13.134;2023-03-25T20:40:57;1.60;;;0.83;;
10063;SDS011;5071;52.360;13.134;2023-03-25T20:46:00;0.83;;;0.70;;
10063;SDS011;5071;52.360;13.134;2023-03-25T20:51:04;1.07;;;0.30;;
10063;SDS011;5071;52.360;13.134;2023-03-25T20:56:07;0.40;;;0.37;;
10063;SDS011;5071;52.360;13.134;2023-03-25T21:01:10;1.00;;;0.40;;
10063;SDS011;5071;52.360;13.134;2023-03-25T21:06:13;1.03;;;0.30;;
10063;SDS011;5071;52.360;13.134;2023-03-25T21:11:26;1.63;;;0.43;;
10063;SDS011;5071;52.360;13.134;2023-03-25T21:16:28;0.50;;;0.50;;
10063;SDS011;5071;52.360;13.134;2023-03-25T21:21:31;3.80;;;0.90;;
10063;SDS011;5071;52.360;13.134;2023-03-25T21:26:34;0.63;;;0.50;;
10063;SDS011;5071;52.360;13.134;2023-03-25T21:31:36;2.90;;;0.77;;
10063;SDS011;5071;52.360;13.134;2023-03-25T21:36:41;1.50;;;0.60;;
10063;SDS011;5071;52.360;13.134;2023-03-25T21:41:44;1.43;;;0.70;;
10063;SDS011;5071;52.360;13.134;2023-03-25T21:46:45;1.13;;;0.60;;
10063;SDS011;5071;52.360;13.134;2023-03-25T21:51:49;2.50;;;0.53;;
10063;SDS011;5071;52.360;13.134;2023-03-25T21:56:51;0.90;;;0.80;;
10063;SDS011;5071;52.360;13.134;2023-03-25T22:01:53;1.57;;;1.00;;
10063;SDS011;5071;52.360;13.134;2023-03-25T22:06:57;1.57;;;0.70;;
10063;SDS011;5071;52.360;13.134;2023-03-25T22:11:59;1.83;;;0.80;;
10063;SDS011;5071;52.360;13.134;2023-03-25T22:17:01;1.50;;;0.90;;
10063;SDS011;5071;52.360;13.134;2023-03-25T22:22:04;1.50;;;1.30;;
10063;SDS011;5071;52.360;13.134;2023-03-25T22:27:06;3.50;;;0.80;;
10063;SDS011;5071;52.360;13.134;2023-03-25T22:32:08;1.87;;;1.13;;
10063;SDS011;5071;52.360;13.134;2023-03-25T22:37:12;2.03;;;1.10;;
10063;SDS011;5071;52.360;13.134;2023-03-25T22:42:14;1.70;;;0.90;;
10063;SDS011;5071;52.360;13.134;2023-03-25T22:47:16;2.27;;;1.20;;
10063;SDS011;5071;52.360;13.134;2023-03-25T22:52:20;1.67;;;1.10;;
10063;SDS011;5071;52.360;13.134;2023-03-25T22:57:22;1.17;;;1.07;;
10063;SDS011;5071;52.360;13.134;2023-03-25T23:02:24;1.57;;;0.90;;
10063;SDS011;5071;52.360;13.134;2023-03-25T23:07:28;4.77;;;1.40;;
10063;SDS011;5071;52.360;13.134;2023-03-25T23:12:30;1.23;;;1.10;;
10063;SDS011;5071;52.360;13.134;2023-03-25T23:17:32;2.07;;;1.37;;
10063;SDS011;5071;52.360;13.134;2023-03-25T23:22:36;1.53;;;1.40;;
10063;SDS011;5071;52.360;13.134;2023-03-25T23:27:38;2.67;;;1.73;;
10063;SDS011;5071;52.360;13.134;2023-03-25T23:32:40;1.50;;;1.40;;
10063;SDS011;5071;52.360;13.134;2023-03-25T23:37:44;4.10;;;1.87;;
10063;SDS011;5071;52.360;13.134;2023-03-25T23:42:46;1.80;;;1.47;;
10063;SDS011;5071;52.360;13.134;2023-03-25T23:47:48;2.83;;;1.73;;
10063;SDS011;5071;52.360;13.134;2023-03-25T23:52:51;1.10;;;1.00;;
10063;SDS011;5071;52.360;13.134;2023-03-25T23:57:54;1.33;;;1.23;;
